sensor_id;sensor_type;location;lat;lon;timestamp;temperature;humidity
39519;DHT22;25200;53.394;10.414;2023-08-31T00:01:46;16.70;78.10
39519;DHT22;25200;53.394;10.414;2023-08-31T00:04:13;16.70;78.70
39519;DHT22;25200;53.394;10.414;2023-08-31T00:06:40;16.70;78.00
39519;DHT22;25200;53.394;10.414;2023-08-31T00:09:06;16.60;78.10
39519;DHT22;25200;53.394;10.414;2023-08-31T00:11:35;16.60;78.50
39519;DHT22;25200;53.394;10.414;2023-08-31T00:14:01;16.60;78.40
39519;DHT22;25200;53.394;10.414;2023-08-31T00:16:26;16.60;78.30
39519;DHT22;25200;53.394;10.414;2023-08-31T00:18:52;16.60;78.70
39519;DHT22;25200;53.394;10.414;2023-08-31T00:21:18;16.60;78.50
39519;DHT22;25200;53.394;10.414;2023-08-31T00:23:44;16.60;78.30
39519;DHT22;25200;53.394;10.414;2023-08-31T00:26:09;16.60;78.30
39519;DHT22;25200;53.394;10.414;2023-08-31T00:28:35;16.60;78.30
39519;DHT22;25200;53.394;10.414;2023-08-31T00:31:02;16.60;78.30
39519;DHT22;25200;53.394;10.414;2023-08-31T00:33:30;16.50;78.30
39519;DHT22;25200;53.394;10.414;2023-08-31T00:35:59;16.50;78.20
39519;DHT22;25200;53.394;10.414;2023-08-31T00:38:27;16.50;78.30
39519;DHT22;25200;53.394;10.414;2023-08-31T00:40:52;16.50;78.20
39519;DHT22;25200;53.394;10.414;2023-08-31T00:43:19;16.40;78.20
39519;DHT22;25200;53.394;10.414;2023-08-31T00:45:48;16.40;78.20
39519;DHT22;25200;53.394;10.414;2023-08-31T00:48:15;16.40;78.50
39519;DHT22;25200;53.394;10.414;2023-08-31T00:50:45;16.40;78.40
39519;DHT22;25200;53.394;10.414;2023-08-31T00:53:11;16.40;79.40
39519;DHT22;25200;53.394;10.414;2023-08-31T00:55:37;16.30;78.40
39519;DHT22;25200;53.394;10.414;2023-08-31T00:58:05;16.30;78.60
39519;DHT22;25200;53.394;10.414;2023-08-31T01:00:44;16.20;79.00
39519;DHT22;25200;53.394;10.414;2023-08-31T01:03:16;16.20;79.00
39519;DHT22;25200;53.394;10.414;2023-08-31T01:14:11;16.10;79.10
39519;DHT22;25200;53.394;10.414;2023-08-31T01:16:39;16.00;79.20
39519;DHT22;25200;53.394;10.414;2023-08-31T01:19:27;16.00;78.90
39519;DHT22;25200;53.394;10.414;2023-08-31T01:21:59;16.00;79.10
39519;DHT22;25200;53.394;10.414;2023-08-31T01:24:25;16.00;79.20
39519;DHT22;25200;53.394;10.414;2023-08-31T01:26:51;16.00;79.00
39519;DHT22;25200;53.394;10.414;2023-08-31T01:29:18;16.00;78.70
39519;DHT22;25200;53.394;10.414;2023-08-31T01:31:44;16.00;79.10
39519;DHT22;25200;53.394;10.414;2023-08-31T01:34:10;15.90;79.00
39519;DHT22;25200;53.394;10.414;2023-08-31T01:36:41;15.90;78.80
39519;DHT22;25200;53.394;10.414;2023-08-31T01:39:26;16.00;79.50
39519;DHT22;25200;53.394;10.414;2023-08-31T01:41:56;15.90;79.60
39519;DHT22;25200;53.394;10.414;2023-08-31T01:44:23;15.90;79.20
39519;DHT22;25200;53.394;10.414;2023-08-31T01:46:54;15.80;79.50
39519;DHT22;25200;53.394;10.414;2023-08-31T01:49:20;15.80;79.70
39519;DHT22;25200;53.394;10.414;2023-08-31T01:51:48;15.80;79.30
39519;DHT22;25200;53.394;10.414;2023-08-31T01:54:14;15.80;79.60
39519;DHT22;25200;53.394;10.414;2023-08-31T01:56:40;15.70;79.80
39519;DHT22;25200;53.394;10.414;2023-08-31T01:59:05;15.70;79.90
39519;DHT22;25200;53.394;10.414;2023-08-31T02:01:32;15.70;79.70
39519;DHT22;25200;53.394;10.414;2023-08-31T02:03:58;15.60;79.70
39519;DHT22;25200;53.394;10.414;2023-08-31T02:06:24;15.60;79.10
39519;DHT22;25200;53.394;10.414;2023-08-31T02:08:49;15.60;80.00
39519;DHT22;25200;53.394;10.414;2023-08-31T02:11:15;15.60;79.50
39519;DHT22;25200;53.394;10.414;2023-08-31T02:13:42;15.50;80.10
39519;DHT22;25200;53.394;10.414;2023-08-31T02:16:07;15.50;80.30
39519;DHT22;25200;53.394;10.414;2023-08-31T02:18:33;15.50;80.10
39519;DHT22;25200;53.394;10.414;2023-08-31T02:20:58;15.50;80.20
39519;DHT22;25200;53.394;10.414;2023-08-31T02:23:24;15.40;80.10
39519;DHT22;25200;53.394;10.414;2023-08-31T02:25:50;15.40;80.50
39519;DHT22;25200;53.394;10.414;2023-08-31T02:28:15;15.40;80.60
39519;DHT22;25200;53.394;10.414;2023-08-31T02:30:44;15.30;80.30
39519;DHT22;25200;53.394;10.414;2023-08-31T02:33:09;15.30;80.20
39519;DHT22;25200;53.394;10.414;2023-08-31T02:35:35;15.30;80.50
39519;DHT22;25200;53.394;10.414;2023-08-31T02:38:01;15.30;80.20
39519;DHT22;25200;53.394;10.414;2023-08-31T02:40:27;15.20;80.30
39519;DHT22;25200;53.394;10.414;2023-08-31T02:42:53;15.20;80.20
39519;DHT22;25200;53.394;10.414;2023-08-31T02:45:18;15.20;80.80
39519;DHT22;25200;53.394;10.414;2023-08-31T02:47:44;15.20;80.50
39519;DHT22;25200;53.394;10.414;2023-08-31T02:50:10;15.10;80.50
39519;DHT22;25200;53.394;10.414;2023-08-31T02:52:35;15.10;80.40
39519;DHT22;25200;53.394;10.414;2023-08-31T02:55:01;15.10;80.30
39519;DHT22;25200;53.394;10.414;2023-08-31T02:57:27;15.10;80.30
39519;DHT22;25200;53.394;10.414;2023-08-31T02:59:52;15.10;80.20
39519;DHT22;25200;53.394;10.414;2023-08-31T03:02:18;15.00;80.60
39519;DHT22;25200;53.394;10.414;2023-08-31T03:04:43;15.00;80.30
39519;DHT22;25200;53.394;10.414;2023-08-31T03:07:09;15.00;80.40
39519;DHT22;25200;53.394;10.414;2023-08-31T03:09:39;15.00;80.30
39519;DHT22;25200;53.394;10.414;2023-08-31T03:12:05;14.90;80.00
39519;DHT22;25200;53.394;10.414;2023-08-31T03:14:30;14.90;80.30
39519;DHT22;25200;53.394;10.414;2023-08-31T03:16:56;14.90;80.30
39519;DHT22;25200;53.394;10.414;2023-08-31T03:19:22;14.80;80.20
39519;DHT22;25200;53.394;10.414;2023-08-31T03:21:47;14.80;80.40
39519;DHT22;25200;53.394;10.414;2023-08-31T03:24:13;14.80;80.20
39519;DHT22;25200;53.394;10.414;2023-08-31T03:26:39;14.80;80.40
39519;DHT22;25200;53.394;10.414;2023-08-31T03:29:04;14.80;80.30
39519;DHT22;25200;53.394;10.414;2023-08-31T03:31:30;14.70;80.10
39519;DHT22;25200;53.394;10.414;2023-08-31T03:33:56;14.70;80.30
39519;DHT22;25200;53.394;10.414;2023-08-31T03:36:22;14.70;80.90
39519;DHT22;25200;53.394;10.414;2023-08-31T03:38:47;14.70;80.40
39519;DHT22;25200;53.394;10.414;2023-08-31T03:41:13;14.70;80.60
39519;DHT22;25200;53.394;10.414;2023-08-31T03:43:38;14.70;80.20
39519;DHT22;25200;53.394;10.414;2023-08-31T03:46:04;14.70;80.30
39519;DHT22;25200;53.394;10.414;2023-08-31T03:48:30;14.60;80.40
39519;DHT22;25200;53.394;10.414;2023-08-31T03:50:55;14.60;80.50
39519;DHT22;25200;53.394;10.414;2023-08-31T03:53:21;14.60;80.00
39519;DHT22;25200;53.394;10.414;2023-08-31T03:55:47;14.60;80.00
39519;DHT22;25200;53.394;10.414;2023-08-31T03:58:13;14.60;80.30
39519;DHT22;25200;53.394;10.414;2023-08-31T04:00:38;14.50;80.10
39519;DHT22;25200;53.394;10.414;2023-08-31T04:03:04;14.50;80.30
39519;DHT22;25200;53.394;10.414;2023-08-31T04:05:34;14.50;80.30
39519;DHT22;25200;53.394;10.414;2023-08-31T04:08:00;14.50;80.00
39519;DHT22;25200;53.394;10.414;2023-08-31T04:10:26;14.50;80.60
39519;DHT22;25200;53.394;10.414;2023-08-31T04:12:52;14.50;79.90
39519;DHT22;25200;53.394;10.414;2023-08-31T04:15:17;14.40;80.10
39519;DHT22;25200;53.394;10.414;2023-08-31T04:17:43;14.40;80.20
39519;DHT22;25200;53.394;10.414;2023-08-31T04:20:10;14.40;80.10
39519;DHT22;25200;53.394;10.414;2023-08-31T04:22:36;14.30;80.00
39519;DHT22;25200;53.394;10.414;2023-08-31T04:25:01;14.30;80.30
39519;DHT22;25200;53.394;10.414;2023-08-31T04:27:27;14.30;80.30
39519;DHT22;25200;53.394;10.414;2023-08-31T04:29:55;14.30;80.30
39519;DHT22;25200;53.394;10.414;2023-08-31T04:32:20;14.30;80.00
39519;DHT22;25200;53.394;10.414;2023-08-31T04:34:46;14.20;80.10
39519;DHT22;25200;53.394;10.414;2023-08-31T04:37:11;14.20;80.30
39519;DHT22;25200;53.394;10.414;2023-08-31T04:39:37;14.20;80.40
39519;DHT22;25200;53.394;10.414;2023-08-31T04:42:03;14.20;80.40
39519;DHT22;25200;53.394;10.414;2023-08-31T04:44:29;14.20;80.30
39519;DHT22;25200;53.394;10.414;2023-08-31T04:46:54;14.10;80.20
39519;DHT22;25200;53.394;10.414;2023-08-31T04:49:20;14.10;79.90
39519;DHT22;25200;53.394;10.414;2023-08-31T04:51:46;14.10;80.30
39519;DHT22;25200;53.394;10.414;2023-08-31T04:54:11;14.10;80.30
39519;DHT22;25200;53.394;10.414;2023-08-31T04:56:37;14.10;80.10
39519;DHT22;25200;53.394;10.414;2023-08-31T04:59:02;14.10;80.30
39519;DHT22;25200;53.394;10.414;2023-08-31T05:01:28;14.10;80.20
39519;DHT22;25200;53.394;10.414;2023-08-31T05:03:54;14.10;80.50
39519;DHT22;25200;53.394;10.414;2023-08-31T05:06:20;14.10;80.50
39519;DHT22;25200;53.394;10.414;2023-08-31T05:08:47;14.10;80.50
39519;DHT22;25200;53.394;10.414;2023-08-31T05:11:13;14.10;80.20
39519;DHT22;25200;53.394;10.414;2023-08-31T05:13:39;14.10;80.50
39519;DHT22;25200;53.394;10.414;2023-08-31T05:16:07;14.10;80.60
39519;DHT22;25200;53.394;10.414;2023-08-31T05:18:33;14.10;80.80
39519;DHT22;25200;53.394;10.414;2023-08-31T05:20:59;14.10;80.60
39519;DHT22;25200;53.394;10.414;2023-08-31T05:23:24;14.10;80.80
39519;DHT22;25200;53.394;10.414;2023-08-31T05:25:50;14.10;80.80
39519;DHT22;25200;53.394;10.414;2023-08-31T05:28:15;14.10;80.60
39519;DHT22;25200;53.394;10.414;2023-08-31T05:30:52;14.10;80.90
39519;DHT22;25200;53.394;10.414;2023-08-31T05:33:18;14.10;80.50
39519;DHT22;25200;53.394;10.414;2023-08-31T05:35:47;14.10;80.70
39519;DHT22;25200;53.394;10.414;2023-08-31T05:38:12;14.10;80.90
39519;DHT22;25200;53.394;10.414;2023-08-31T05:40:38;14.10;80.60
39519;DHT22;25200;53.394;10.414;2023-08-31T05:43:04;14.10;80.30
39519;DHT22;25200;53.394;10.414;2023-08-31T05:45:33;14.20;80.60
39519;DHT22;25200;53.394;10.414;2023-08-31T05:48:00;14.10;80.60
39519;DHT22;25200;53.394;10.414;2023-08-31T05:50:26;14.20;80.40
39519;DHT22;25200;53.394;10.414;2023-08-31T05:52:52;14.20;80.00
39519;DHT22;25200;53.394;10.414;2023-08-31T05:55:18;14.20;80.20
39519;DHT22;25200;53.394;10.414;2023-08-31T05:57:44;14.30;80.50
39519;DHT22;25200;53.394;10.414;2023-08-31T06:00:09;14.30;80.00
39519;DHT22;25200;53.394;10.414;2023-08-31T06:02:35;14.30;80.30
39519;DHT22;25200;53.394;10.414;2023-08-31T06:05:02;14.30;80.40
39519;DHT22;25200;53.394;10.414;2023-08-31T06:07:31;14.30;80.10
39519;DHT22;25200;53.394;10.414;2023-08-31T06:09:57;14.40;80.10
39519;DHT22;25200;53.394;10.414;2023-08-31T06:12:23;14.40;80.10
39519;DHT22;25200;53.394;10.414;2023-08-31T06:14:49;14.30;79.80
39519;DHT22;25200;53.394;10.414;2023-08-31T06:17:14;14.30;80.50
39519;DHT22;25200;53.394;10.414;2023-08-31T06:19:40;14.40;80.20
39519;DHT22;25200;53.394;10.414;2023-08-31T06:22:07;14.30;80.30
39519;DHT22;25200;53.394;10.414;2023-08-31T06:24:32;14.30;80.20
39519;DHT22;25200;53.394;10.414;2023-08-31T06:26:59;14.40;80.60
39519;DHT22;25200;53.394;10.414;2023-08-31T06:29:25;14.40;80.40
39519;DHT22;25200;53.394;10.414;2023-08-31T06:31:51;14.30;80.40
39519;DHT22;25200;53.394;10.414;2023-08-31T06:34:16;14.40;80.60
39519;DHT22;25200;53.394;10.414;2023-08-31T06:36:42;14.30;80.20
39519;DHT22;25200;53.394;10.414;2023-08-31T06:39:08;14.40;80.40
39519;DHT22;25200;53.394;10.414;2023-08-31T06:41:33;14.40;80.40
39519;DHT22;25200;53.394;10.414;2023-08-31T06:43:59;14.40;80.90
39519;DHT22;25200;53.394;10.414;2023-08-31T06:46:25;14.40;80.40
39519;DHT22;25200;53.394;10.414;2023-08-31T06:48:50;14.40;80.50
39519;DHT22;25200;53.394;10.414;2023-08-31T06:51:16;14.40;80.40
39519;DHT22;25200;53.394;10.414;2023-08-31T06:53:42;14.50;80.50
39519;DHT22;25200;53.394;10.414;2023-08-31T06:56:08;14.50;80.90
39519;DHT22;25200;53.394;10.414;2023-08-31T06:58:34;14.50;80.60
39519;DHT22;25200;53.394;10.414;2023-08-31T07:01:00;14.50;80.60
39519;DHT22;25200;53.394;10.414;2023-08-31T07:03:25;14.50;81.00
39519;DHT22;25200;53.394;10.414;2023-08-31T07:05:51;14.50;81.00
39519;DHT22;25200;53.394;10.414;2023-08-31T07:08:17;14.50;80.80
39519;DHT22;25200;53.394;10.414;2023-08-31T07:10:42;14.50;80.90
39519;DHT22;25200;53.394;10.414;2023-08-31T07:13:08;14.50;80.60
39519;DHT22;25200;53.394;10.414;2023-08-31T07:15:34;14.60;80.90
39519;DHT22;25200;53.394;10.414;2023-08-31T07:17:59;14.60;81.20
39519;DHT22;25200;53.394;10.414;2023-08-31T07:20:25;14.60;80.70
39519;DHT22;25200;53.394;10.414;2023-08-31T07:22:51;14.60;80.90
39519;DHT22;25200;53.394;10.414;2023-08-31T07:25:16;14.60;80.60
39519;DHT22;25200;53.394;10.414;2023-08-31T07:27:42;14.60;81.00
39519;DHT22;25200;53.394;10.414;2023-08-31T07:30:08;14.70;80.90
39519;DHT22;25200;53.394;10.414;2023-08-31T07:32:35;14.70;80.90
39519;DHT22;25200;53.394;10.414;2023-08-31T07:35:01;14.70;81.70
39519;DHT22;25200;53.394;10.414;2023-08-31T07:37:26;14.70;81.20
39519;DHT22;25200;53.394;10.414;2023-08-31T07:39:52;14.80;81.20
39519;DHT22;25200;53.394;10.414;2023-08-31T07:42:17;14.80;80.90
39519;DHT22;25200;53.394;10.414;2023-08-31T07:44:43;14.80;81.20
39519;DHT22;25200;53.394;10.414;2023-08-31T07:47:09;14.80;81.20
39519;DHT22;25200;53.394;10.414;2023-08-31T07:49:35;14.80;80.90
39519;DHT22;25200;53.394;10.414;2023-08-31T07:52:01;14.80;81.20
39519;DHT22;25200;53.394;10.414;2023-08-31T07:54:26;14.80;80.90
39519;DHT22;25200;53.394;10.414;2023-08-31T07:56:52;14.90;81.00
39519;DHT22;25200;53.394;10.414;2023-08-31T07:59:18;14.90;81.40
39519;DHT22;25200;53.394;10.414;2023-08-31T08:01:44;14.90;80.70
39519;DHT22;25200;53.394;10.414;2023-08-31T08:04:11;14.90;81.00
39519;DHT22;25200;53.394;10.414;2023-08-31T08:06:37;15.00;81.10
39519;DHT22;25200;53.394;10.414;2023-08-31T08:09:02;15.00;81.30
39519;DHT22;25200;53.394;10.414;2023-08-31T08:11:30;15.00;81.20
39519;DHT22;25200;53.394;10.414;2023-08-31T08:13:56;15.00;81.10
39519;DHT22;25200;53.394;10.414;2023-08-31T08:16:21;15.00;81.20
39519;DHT22;25200;53.394;10.414;2023-08-31T08:18:47;15.10;81.10
39519;DHT22;25200;53.394;10.414;2023-08-31T08:21:13;15.10;80.60
39519;DHT22;25200;53.394;10.414;2023-08-31T08:23:38;15.20;80.80
39519;DHT22;25200;53.394;10.414;2023-08-31T08:26:04;15.30;80.70
39519;DHT22;25200;53.394;10.414;2023-08-31T08:28:29;15.40;80.70
39519;DHT22;25200;53.394;10.414;2023-08-31T08:30:55;15.40;80.80
39519;DHT22;25200;53.394;10.414;2023-08-31T08:33:21;15.40;80.60
39519;DHT22;25200;53.394;10.414;2023-08-31T08:35:46;15.40;80.50
39519;DHT22;25200;53.394;10.414;2023-08-31T08:38:12;15.40;80.50
39519;DHT22;25200;53.394;10.414;2023-08-31T08:40:38;15.50;80.50
39519;DHT22;25200;53.394;10.414;2023-08-31T08:43:06;15.50;80.40
39519;DHT22;25200;53.394;10.414;2023-08-31T08:45:38;15.50;80.30
39519;DHT22;25200;53.394;10.414;2023-08-31T08:48:07;15.50;80.20
39519;DHT22;25200;53.394;10.414;2023-08-31T08:50:35;15.50;80.30
39519;DHT22;25200;53.394;10.414;2023-08-31T08:53:05;15.60;80.20
39519;DHT22;25200;53.394;10.414;2023-08-31T08:55:31;15.60;80.30
39519;DHT22;25200;53.394;10.414;2023-08-31T08:57:58;15.60;80.30
39519;DHT22;25200;53.394;10.414;2023-08-31T09:00:29;15.70;80.20
39519;DHT22;25200;53.394;10.414;2023-08-31T09:02:55;15.70;80.20
39519;DHT22;25200;53.394;10.414;2023-08-31T09:05:22;15.80;80.20
39519;DHT22;25200;53.394;10.414;2023-08-31T09:08:01;15.90;80.30
39519;DHT22;25200;53.394;10.414;2023-08-31T09:10:55;16.00;79.90
39519;DHT22;25200;53.394;10.414;2023-08-31T09:13:20;16.20;79.90
39519;DHT22;25200;53.394;10.414;2023-08-31T09:15:47;16.30;79.60
39519;DHT22;25200;53.394;10.414;2023-08-31T09:20:48;16.50;79.50
39519;DHT22;25200;53.394;10.414;2023-08-31T09:23:15;16.50;79.30
39519;DHT22;25200;53.394;10.414;2023-08-31T09:25:45;16.50;79.30
39519;DHT22;25200;53.394;10.414;2023-08-31T09:28:14;16.50;79.30
39519;DHT22;25200;53.394;10.414;2023-08-31T09:30:40;16.50;79.30
39519;DHT22;25200;53.394;10.414;2023-08-31T09:33:13;16.50;79.30
39519;DHT22;25200;53.394;10.414;2023-08-31T09:35:54;16.50;79.30
39519;DHT22;25200;53.394;10.414;2023-08-31T09:38:20;16.50;79.50
39519;DHT22;25200;53.394;10.414;2023-08-31T09:40:46;16.80;79.70
39519;DHT22;25200;53.394;10.414;2023-08-31T09:43:19;17.00;79.40
39519;DHT22;25200;53.394;10.414;2023-08-31T09:45:46;17.30;79.40
39519;DHT22;25200;53.394;10.414;2023-08-31T09:48:13;17.50;78.80
39519;DHT22;25200;53.394;10.414;2023-08-31T09:50:41;17.60;78.30
39519;DHT22;25200;53.394;10.414;2023-08-31T09:53:10;17.70;78.40
39519;DHT22;25200;53.394;10.414;2023-08-31T09:55:36;17.80;78.00
39519;DHT22;25200;53.394;10.414;2023-08-31T09:58:06;18.10;78.30
39519;DHT22;25200;53.394;10.414;2023-08-31T10:00:35;18.30;78.20
39519;DHT22;25200;53.394;10.414;2023-08-31T10:03:03;18.60;78.00
39519;DHT22;25200;53.394;10.414;2023-08-31T10:05:30;18.90;77.70
39519;DHT22;25200;53.394;10.414;2023-08-31T10:07:57;19.10;77.30
39519;DHT22;25200;53.394;10.414;2023-08-31T10:10:23;19.20;77.00
39519;DHT22;25200;53.394;10.414;2023-08-31T10:12:50;19.30;76.60
39519;DHT22;25200;53.394;10.414;2023-08-31T10:15:17;19.30;76.10
39519;DHT22;25200;53.394;10.414;2023-08-31T10:17:43;19.20;75.80
39519;DHT22;25200;53.394;10.414;2023-08-31T10:20:11;19.20;75.30
39519;DHT22;25200;53.394;10.414;2023-08-31T10:22:37;19.10;75.90
39519;DHT22;25200;53.394;10.414;2023-08-31T10:25:05;19.10;76.20
39519;DHT22;25200;53.394;10.414;2023-08-31T10:32:45;19.10;75.30
39519;DHT22;25200;53.394;10.414;2023-08-31T10:35:12;19.00;75.30
39519;DHT22;25200;53.394;10.414;2023-08-31T10:37:39;18.80;75.10
39519;DHT22;25200;53.394;10.414;2023-08-31T10:40:15;18.70;75.00
39519;DHT22;25200;53.394;10.414;2023-08-31T10:42:48;18.50;75.20
39519;DHT22;25200;53.394;10.414;2023-08-31T10:45:43;18.40;75.30
39519;DHT22;25200;53.394;10.414;2023-08-31T10:48:09;18.20;75.40
39519;DHT22;25200;53.394;10.414;2023-08-31T10:50:41;18.20;75.70
39519;DHT22;25200;53.394;10.414;2023-08-31T10:53:10;18.10;75.90
39519;DHT22;25200;53.394;10.414;2023-08-31T10:55:52;18.00;76.00
39519;DHT22;25200;53.394;10.414;2023-08-31T10:58:18;17.90;76.00
39519;DHT22;25200;53.394;10.414;2023-08-31T11:00:51;17.90;76.40
39519;DHT22;25200;53.394;10.414;2023-08-31T11:03:18;18.00;76.80
39519;DHT22;25200;53.394;10.414;2023-08-31T11:05:53;18.10;77.00
39519;DHT22;25200;53.394;10.414;2023-08-31T11:08:22;18.30;76.80
39519;DHT22;25200;53.394;10.414;2023-08-31T11:10:49;18.50;76.80
39519;DHT22;25200;53.394;10.414;2023-08-31T11:13:22;18.80;76.80
39519;DHT22;25200;53.394;10.414;2023-08-31T11:15:48;19.00;76.60
39519;DHT22;25200;53.394;10.414;2023-08-31T11:18:15;18.90;75.50
39519;DHT22;25200;53.394;10.414;2023-08-31T11:20:43;18.90;75.30
39519;DHT22;25200;53.394;10.414;2023-08-31T11:23:09;18.90;75.60
39519;DHT22;25200;53.394;10.414;2023-08-31T11:25:35;19.10;76.40
39519;DHT22;25200;53.394;10.414;2023-08-31T11:28:03;19.40;76.60
39519;DHT22;25200;53.394;10.414;2023-08-31T11:30:35;19.80;77.00
39519;DHT22;25200;53.394;10.414;2023-08-31T11:33:05;20.30;76.00
39519;DHT22;25200;53.394;10.414;2023-08-31T11:35:36;20.60;75.20
39519;DHT22;25200;53.394;10.414;2023-08-31T11:38:02;21.00;75.00
39519;DHT22;25200;53.394;10.414;2023-08-31T11:40:29;21.20;74.40
39519;DHT22;25200;53.394;10.414;2023-08-31T11:42:56;21.30;74.20
39519;DHT22;25200;53.394;10.414;2023-08-31T11:45:22;21.50;74.20
39519;DHT22;25200;53.394;10.414;2023-08-31T11:47:49;21.70;74.40
39519;DHT22;25200;53.394;10.414;2023-08-31T11:50:16;21.90;73.70
39519;DHT22;25200;53.394;10.414;2023-08-31T11:52:42;22.00;73.90
39519;DHT22;25200;53.394;10.414;2023-08-31T11:55:12;22.20;73.80
39519;DHT22;25200;53.394;10.414;2023-08-31T11:57:37;22.50;73.70
39519;DHT22;25200;53.394;10.414;2023-08-31T12:00:05;22.50;72.40
39519;DHT22;25200;53.394;10.414;2023-08-31T12:02:37;22.50;72.60
39519;DHT22;25200;53.394;10.414;2023-08-31T12:05:02;22.70;72.70
39519;DHT22;25200;53.394;10.414;2023-08-31T12:07:31;22.80;72.60
39519;DHT22;25200;53.394;10.414;2023-08-31T12:10:03;22.80;72.50
39519;DHT22;25200;53.394;10.414;2023-08-31T12:12:30;22.90;72.10
39519;DHT22;25200;53.394;10.414;2023-08-31T12:14:58;22.80;71.70
39519;DHT22;25200;53.394;10.414;2023-08-31T12:17:26;22.70;71.90
39519;DHT22;25200;53.394;10.414;2023-08-31T12:19:52;22.70;72.10
39519;DHT22;25200;53.394;10.414;2023-08-31T12:22:17;22.80;72.50
39519;DHT22;25200;53.394;10.414;2023-08-31T12:24:43;22.70;71.80
39519;DHT22;25200;53.394;10.414;2023-08-31T12:27:09;22.70;72.00
39519;DHT22;25200;53.394;10.414;2023-08-31T12:29:35;22.60;71.80
39519;DHT22;25200;53.394;10.414;2023-08-31T12:32:01;22.50;71.60
39519;DHT22;25200;53.394;10.414;2023-08-31T12:34:29;22.30;71.00
39519;DHT22;25200;53.394;10.414;2023-08-31T12:36:56;22.10;71.10
39519;DHT22;25200;53.394;10.414;2023-08-31T12:39:25;21.90;71.40
39519;DHT22;25200;53.394;10.414;2023-08-31T12:41:50;22.10;72.90
39519;DHT22;25200;53.394;10.414;2023-08-31T12:44:16;22.30;73.30
39519;DHT22;25200;53.394;10.414;2023-08-31T12:46:41;22.40;72.30
39519;DHT22;25200;53.394;10.414;2023-08-31T12:49:07;22.30;71.40
39519;DHT22;25200;53.394;10.414;2023-08-31T12:51:33;22.20;71.20
39519;DHT22;25200;53.394;10.414;2023-08-31T12:53:58;22.00;71.10
39519;DHT22;25200;53.394;10.414;2023-08-31T12:56:24;21.90;71.10
39519;DHT22;25200;53.394;10.414;2023-08-31T12:58:53;21.70;71.30
39519;DHT22;25200;53.394;10.414;2023-08-31T13:01:20;21.60;71.60
39519;DHT22;25200;53.394;10.414;2023-08-31T13:03:46;21.60;72.20
39519;DHT22;25200;53.394;10.414;2023-08-31T13:06:15;21.50;71.50
39519;DHT22;25200;53.394;10.414;2023-08-31T13:08:45;21.40;71.30
39519;DHT22;25200;53.394;10.414;2023-08-31T13:11:11;21.30;71.40
39519;DHT22;25200;53.394;10.414;2023-08-31T13:13:38;21.20;71.70
39519;DHT22;25200;53.394;10.414;2023-08-31T13:16:03;21.20;72.50
39519;DHT22;25200;53.394;10.414;2023-08-31T13:18:29;21.40;73.70
39519;DHT22;25200;53.394;10.414;2023-08-31T13:20:55;21.70;73.90
39519;DHT22;25200;53.394;10.414;2023-08-31T13:23:21;21.90;73.30
39519;DHT22;25200;53.394;10.414;2023-08-31T13:25:47;21.90;72.40
39519;DHT22;25200;53.394;10.414;2023-08-31T13:28:13;21.90;72.50
39519;DHT22;25200;53.394;10.414;2023-08-31T13:30:39;21.90;72.20
39519;DHT22;25200;53.394;10.414;2023-08-31T13:33:06;21.90;71.60
39519;DHT22;25200;53.394;10.414;2023-08-31T13:35:32;21.80;71.60
39519;DHT22;25200;53.394;10.414;2023-08-31T13:37:58;21.70;71.10
39519;DHT22;25200;53.394;10.414;2023-08-31T13:40:23;21.50;71.10
39519;DHT22;25200;53.394;10.414;2023-08-31T13:42:58;21.40;71.00
39519;DHT22;25200;53.394;10.414;2023-08-31T13:45:28;21.30;70.80
39519;DHT22;25200;53.394;10.414;2023-08-31T13:47:54;21.10;70.70
39519;DHT22;25200;53.394;10.414;2023-08-31T13:50:20;20.90;70.10
39519;DHT22;25200;53.394;10.414;2023-08-31T13:52:46;20.70;70.10
39519;DHT22;25200;53.394;10.414;2023-08-31T13:55:11;20.40;69.90
39519;DHT22;25200;53.394;10.414;2023-08-31T13:57:40;20.20;70.10
39519;DHT22;25200;53.394;10.414;2023-08-31T14:00:07;20.00;70.60
39519;DHT22;25200;53.394;10.414;2023-08-31T14:02:35;19.80;70.50
39519;DHT22;25200;53.394;10.414;2023-08-31T14:05:02;19.60;70.70
39519;DHT22;25200;53.394;10.414;2023-08-31T14:07:27;19.50;71.10
39519;DHT22;25200;53.394;10.414;2023-08-31T14:09:53;19.50;71.50
39519;DHT22;25200;53.394;10.414;2023-08-31T14:12:19;19.50;72.10
39519;DHT22;25200;53.394;10.414;2023-08-31T14:14:45;19.60;72.30
39519;DHT22;25200;53.394;10.414;2023-08-31T14:17:11;19.80;73.20
39519;DHT22;25200;53.394;10.414;2023-08-31T14:19:38;20.10;73.50
39519;DHT22;25200;53.394;10.414;2023-08-31T14:22:04;20.30;74.10
39519;DHT22;25200;53.394;10.414;2023-08-31T14:24:30;20.50;73.40
39519;DHT22;25200;53.394;10.414;2023-08-31T14:26:56;20.80;72.90
39519;DHT22;25200;53.394;10.414;2023-08-31T14:29:22;20.80;70.80
39519;DHT22;25200;53.394;10.414;2023-08-31T14:31:48;20.80;71.00
39519;DHT22;25200;53.394;10.414;2023-08-31T14:34:14;20.70;70.80
39519;DHT22;25200;53.394;10.414;2023-08-31T14:36:39;20.70;70.80
39519;DHT22;25200;53.394;10.414;2023-08-31T14:39:05;20.70;71.00
39519;DHT22;25200;53.394;10.414;2023-08-31T14:41:31;20.60;70.50
39519;DHT22;25200;53.394;10.414;2023-08-31T14:43:56;20.60;70.70
39519;DHT22;25200;53.394;10.414;2023-08-31T14:46:22;20.70;71.40
39519;DHT22;25200;53.394;10.414;2023-08-31T14:48:49;20.90;71.80
39519;DHT22;25200;53.394;10.414;2023-08-31T14:51:16;21.10;71.00
39519;DHT22;25200;53.394;10.414;2023-08-31T14:53:42;21.30;70.80
39519;DHT22;25200;53.394;10.414;2023-08-31T14:56:08;21.40;71.00
39519;DHT22;25200;53.394;10.414;2023-08-31T14:58:33;21.50;71.00
39519;DHT22;25200;53.394;10.414;2023-08-31T15:00:59;21.60;70.90
39519;DHT22;25200;53.394;10.414;2023-08-31T15:03:25;21.60;70.40
39519;DHT22;25200;53.394;10.414;2023-08-31T15:05:50;21.50;70.80
39519;DHT22;25200;53.394;10.414;2023-08-31T15:08:16;21.40;70.30
39519;DHT22;25200;53.394;10.414;2023-08-31T15:10:41;21.30;70.40
39519;DHT22;25200;53.394;10.414;2023-08-31T15:13:08;21.20;70.30
39519;DHT22;25200;53.394;10.414;2023-08-31T15:15:33;21.00;70.10
39519;DHT22;25200;53.394;10.414;2023-08-31T15:17:59;20.90;70.40
39519;DHT22;25200;53.394;10.414;2023-08-31T15:20:26;20.70;70.50
39519;DHT22;25200;53.394;10.414;2023-08-31T15:22:53;20.60;70.50
39519;DHT22;25200;53.394;10.414;2023-08-31T15:25:18;20.50;70.40
39519;DHT22;25200;53.394;10.414;2023-08-31T15:27:44;20.40;70.90
39519;DHT22;25200;53.394;10.414;2023-08-31T15:30:10;20.30;71.00